メルボルン の空港の天気 - METARとTAF

メルボルン空港 ( YMML / MEL ) - オーストラリア ビクトリア州、Melbourne Airport
飛行場実況気象(Metar)
観測時間12/15 23:30 AEDT (12/15 12:30 UTC)
風向・風速北北東 3m/s
視程10km以上
天気現象
なし
気温18℃
湿度73%
気圧1004hPa
METARYMML 151230Z 02006KT CAVOK 18/13 Q1004 NOSIG
過去の天気等 Google飛行場航空写真 Wunderground天気予報

過去48時間のMETAR

飛行場予報(TAF)
発表時間: 12/15 22:03 AEDT (12/15 11:03 UTC)
予報対象時間: 15日23時 AEDT ~ 17日5時 AEDT
風向・風速北 4m/s
視程10km以上
天気現象弱いしゅう雨
少しの雲 雲底高度 1370m
16日10時 AEDT から
風向・風速北 6m/s
視程10km以上
天気現象弱いしゅう雨
全天の4割程度の雲 雲底高度 1220m
17日3時 AEDT から
風向・風速西南西 4m/s
視程10km以上
少しの雲 雲底高度 240m
TAF YMML 151103Z 1512/1618 01007KT 9999 -SHRA FEW045
FM152300 35012KT 9999 -SHRA SCT040
FM161600 25007KT 9999 FEW008 INTER 1522/1610 4000 SHRA SCT020 BKN040
PROB30 INTER 1517/1522 VRB15G30KT 2000 TSRA BKN012 SCT040CB